메인 페이지
METAR-TAF:

METAR-TAF

공항 :

Wichita Falls Municipal Airport / Sheppard Air Force Base

위치토폴스, 텍사스, 미국

위도: 33-58-43N, 경도: 098-29-34W, 고도: 309m

현재 날씨관측

예보는 23분 전, 00:52시(UTC)에 발표되었습니다.
남남동11kt
온도 13°C
습도 47%
기압 1016 hPa
시정: 16.1km
맑음

METAR: KSPS 170052Z AUTO 16011KT 10SM CLR 13/02 A3001 RMK AO2 SLP164 T01330017

시각: 19:15 (01:15 UTC)

예보

예보는 1 시간 49분 전, 23:26시(UTC)에 발표되었습니다.
예보 대상 시간: 17일 00시부터 17일 24시까지 (UTC)
남남동10kt
시정: 10km
고도 22000ft 상공 구름 많음
17일 1500시부터 (UTC)
12kt
시정: 10km
고도 5000ft 상공 구름 조금

TAF: KSPS 162326Z 1700/1724 15010KT P6SM BKN220 FM171500 36012KT P6SM FEW050

4,000개 이상의 공항 관측 자료 및 예보 (METAR 및 TAF 보고).

지도상에서 검색 가능한 기상관측소가 노란 점과 빨간 점으로 표시되어 있습니다.

기상관측소 명을 보려면 표시 위로 마우스를 이동하세요.

날씨 관측과 예보를 보려면 클릭하세요.

지도 변경 : 확대하려면 엑스 표시가 있는 녹색 버튼, 축소하려면 빼기 표시가 있는 녹색 버튼, 다음 페이지의 지도를 보려면 녹색 화살표를 클릭하세요.


METAR-TAF: